Time;durP1;ratioP1;P1;durP2;ratioP2;P2;SDS_P1;SDS_P2;PMS_P1;PMS_P2;Temp;Humidity;BMP_temperature;BMP_pressure;BME280_temperature;BME280_humidity;BME280_pressure;Samples;Min_cycle;Max_cycle;Signal;HPM_P1;HPM_P2
2022/05/24 00:00:13;;;;;;;8.23;6.03;;;14.10;99.90;;;;;;5094699;28;20382;-54
2022/05/24 00:02:40;;;;;;;8.70;6.28;;;14.10;99.90;;;;;;5094653;28;20432;-53
2022/05/24 00:05:07;;;;;;;10.48;6.35;;;14.10;99.90;;;;;;5094506;28;20048;-53
2022/05/24 00:07:33;;;;;;;9.20;6.07;;;14.00;99.90;;;;;;5094285;28;20039;-52
2022/05/24 00:10:00;;;;;;;8.90;5.95;;;13.90;99.90;;;;;;5094804;28;20036;-53
2022/05/24 00:12:26;;;;;;;7.50;5.82;;;13.90;99.90;;;;;;5094254;28;20107;-52
2022/05/24 00:17:55;;;;;;;7.82;5.93;;;13.80;99.90;;;;;;5032210;28;20123;-53
2022/05/24 00:20:23;;;;;;;10.68;6.80;;;13.80;99.90;;;;;;5031714;28;20109;-53
2022/05/24 00:22:48;;;;;;;11.33;7.13;;;13.80;99.90;;;;;;5031909;28;20045;-53
2022/05/24 00:25:14;;;;;;;9.15;6.93;;;13.70;99.90;;;;;;5032053;28;20132;-53
2022/05/24 00:27:40;;;;;;;9.93;6.38;;;13.70;99.90;;;;;;5031123;28;20518;-53
2022/05/24 00:30:07;;;;;;;9.45;6.07;;;13.80;99.90;;;;;;5030298;28;20516;-54
2022/05/24 00:32:32;;;;;;;8.57;6.05;;;13.80;99.90;;;;;;5028595;28;20053;-52
2022/05/24 00:34:58;;;;;;;10.45;6.80;;;13.80;99.90;;;;;;5031602;28;20510;-54
2022/05/24 00:37:27;;;;;;;10.65;6.22;;;13.80;99.90;;;;;;5031314;28;20042;-53
2022/05/24 00:39:52;;;;;;;8.93;6.65;;;13.80;99.90;;;;;;5014787;28;20061;-53
2022/05/24 00:42:22;;;;;;;8.98;6.43;;;13.90;99.90;;;;;;5031693;28;20045;-53
2022/05/24 00:44:58;;;;;;;10.50;6.63;;;13.80;99.90;;;;;;5031294;28;20128;-53
2022/05/24 00:47:40;;;;;;;8.60;6.57;;;13.80;99.90;;;;;;5031160;28;20154;-51
2022/05/24 00:50:23;;;;;;;10.05;6.53;;;13.80;99.90;;;;;;5031203;28;20045;-53
2022/05/24 00:53:20;;;;;;;7.28;5.72;;;13.70;99.90;;;;;;5105567;28;20055;-53
2022/05/24 00:56:16;;;;;;;7.47;5.50;;;13.70;99.90;;;;;;5051094;28;20261;-53
2022/05/24 00:59:04;;;;;;;7.47;4.72;;;13.50;99.90;;;;;;5050293;28;20041;-53
2022/05/24 01:01:41;;;;;;;8.68;5.28;;;13.60;99.90;;;;;;5050917;28;20049;-53
2022/05/24 01:04:11;;;;;;;9.05;5.82;;;13.50;99.90;;;;;;5050998;28;20037;-53
2022/05/24 01:06:37;;;;;;;7.38;5.07;;;13.40;99.90;;;;;;5051302;28;20055;-54
2022/05/24 01:09:10;;;;;;;6.10;5.03;;;13.40;99.90;;;;;;5051310;28;20123;-51
2022/05/24 01:11:42;;;;;;;5.57;4.50;;;13.30;99.90;;;;;;5051001;28;20048;-53
2022/05/24 01:14:10;;;;;;;7.70;4.70;;;13.20;99.90;;;;;;5051054;28;20053;-53
2022/05/24 01:16:36;;;;;;;7.45;4.80;;;13.30;99.90;;;;;;5051354;28;20045;-53
2022/05/24 01:19:05;;;;;;;9.30;4.88;;;13.20;99.90;;;;;;5050940;28;20053;-51
2022/05/24 01:21:31;;;;;;;;;;;13.20;99.90;;;;;;5051412;28;20061;-52
2022/05/24 01:24:02;;;;;;;8.68;5.35;;;13.20;99.90;;;;;;5050786;28;19970;-51
2022/05/24 01:26:51;;;;;;;7.88;4.90;;;13.10;99.90;;;;;;5050573;28;20052;-53
2022/05/24 01:29:20;;;;;;;8.48;5.55;;;13.00;99.90;;;;;;5050714;28;20037;-54
2022/05/24 01:37:17;;;;;;;9.02;5.95;;;13.00;99.90;;;;;;5113517;28;20039;-52
2022/05/24 01:39:47;;;;;;;9.85;5.30;;;13.00;99.90;;;;;;5113563;28;20070;-52
2022/05/24 01:42:13;;;;;;;10.20;5.72;;;13.00;99.90;;;;;;5112703;28;20440;-53
2022/05/24 01:45:09;;;;;;;7.15;5.28;;;12.90;99.90;;;;;;5112723;28;20434;-53
2022/05/24 01:47:36;;;;;;;10.77;5.60;;;12.80;99.90;;;;;;5112974;28;20089;-53
2022/05/24 01:50:07;;;;;;;8.85;5.97;;;12.80;99.90;;;;;;5112920;28;20089;-53
2022/05/24 01:52:39;;;;;;;8.85;6.22;;;12.80;99.90;;;;;;5113069;28;20106;-53
2022/05/24 01:55:10;;;;;;;12.40;5.60;;;12.80;99.90;;;;;;5094836;28;20801;-53
2022/05/24 01:57:40;;;;;;;8.63;5.72;;;12.80;99.90;;;;;;5112636;28;20058;-53
2022/05/24 02:00:10;;;;;;;9.43;5.50;;;12.80;99.90;;;;;;5112351;28;20077;-52
2022/05/24 02:02:35;;;;;;;7.78;6.32;;;12.70;99.90;;;;;;5112597;28;20496;-51
2022/05/24 02:05:01;;;;;;;9.95;6.50;;;12.70;99.90;;;;;;5112594;28;20039;-53
2022/05/24 02:07:27;;;;;;;9.93;5.95;;;12.70;99.90;;;;;;5112975;28;20371;-53
2022/05/24 02:09:55;;;;;;;9.23;5.75;;;12.60;99.90;;;;;;5112386;28;20085;-53
2022/05/24 02:12:36;;;;;;;9.85;6.45;;;12.70;99.90;;;;;;5112466;28;20044;-53
2022/05/24 02:15:09;;;;;;;10.57;6.65;;;12.60;99.90;;;;;;5112819;28;20773;-53
2022/05/24 02:17:44;;;;;;;12.75;6.90;;;12.70;99.90;;;;;;5112778;28;20035;-53
2022/05/24 02:20:14;;;;;;;10.55;6.97;;;12.60;99.90;;;;;;5094043;28;20610;-53
2022/05/24 02:22:41;;;;;;;9.52;6.38;;;12.70;99.90;;;;;;5094346;28;20054;-53
2022/05/24 02:25:33;;;;;;;10.43;6.55;;;12.70;99.90;;;;;;5112636;28;20046;-53
2022/05/24 02:27:59;;;;;;;11.55;6.95;;;12.80;99.90;;;;;;5112457;28;20048;-53
2022/05/24 02:30:27;;;;;;;9.32;7.43;;;12.80;99.90;;;;;;5112573;28;20032;-51
2022/05/24 02:32:53;;;;;;;9.45;7.45;;;12.90;99.90;;;;;;5112276;28;20046;-53
2022/05/24 02:35:19;;;;;;;9.27;6.35;;;12.90;99.90;;;;;;5112407;28;20496;-53
2022/05/24 02:37:45;;;;;;;9.25;7.03;;;12.90;99.90;;;;;;5112112;28;20046;-53
2022/05/24 02:42:55;;;;;;;11.15;7.25;;;13.00;99.90;;;;;;5112011;28;20047;-53
2022/05/24 02:45:21;;;;;;;10.93;7.20;;;13.00;99.90;;;;;;5112031;28;20054;-53
2022/05/24 02:47:47;;;;;;;11.05;7.10;;;13.00;99.90;;;;;;5111974;28;20120;-53
2022/05/24 02:50:14;;;;;;;8.65;7.47;;;13.00;99.90;;;;;;5111035;28;20363;-53
2022/05/24 02:52:43;;;;;;;8.73;7.22;;;13.10;99.90;;;;;;5111541;28;20065;-53
2022/05/24 02:55:11;;;;;;;11.25;7.70;;;13.10;99.90;;;;;;5093754;28;20052;-53
2022/05/24 02:57:38;;;;;;;9.75;7.40;;;13.10;99.90;;;;;;5112180;28;20132;-53
2022/05/24 03:00:08;;;;;;;8.25;7.32;;;13.10;99.90;;;;;;5112135;28;20065;-52
2022/05/24 03:02:34;;;;;;;12.30;8.02;;;13.20;99.90;;;;;;5093983;28;20036;-53
2022/05/24 03:05:00;;;;;;;11.82;8.40;;;13.20;99.90;;;;;;5111815;28;20527;-52
2022/05/24 03:10:11;;;;;;;11.88;8.23;;;13.20;99.90;;;;;;5112125;28;20489;-53
2022/05/24 03:15:21;;;;;;;10.07;8.63;;;13.30;99.90;;;;;;5111559;28;20044;-53
2022/05/24 03:17:46;;;;;;;13.68;8.60;;;13.40;99.90;;;;;;5112065;28;20043;-53
2022/05/24 03:20:12;;;;;;;12.85;9.52;;;13.40;99.90;;;;;;5111793;28;20493;-53
2022/05/24 03:22:38;;;;;;;11.93;9.70;;;13.40;99.90;;;;;;5113867;28;20044;-53
2022/05/24 03:25:05;;;;;;;13.95;10.27;;;13.40;99.90;;;;;;5115766;28;20107;-53
2022/05/24 03:27:31;;;;;;;11.90;10.60;;;13.50;99.90;;;;;;5115711;28;20044;-52
2022/05/24 03:29:56;;;;;;;18.05;11.70;;;13.40;99.90;;;;;;5115946;28;20134;-54
2022/05/24 03:32:22;;;;;;;17.10;11.52;;;13.50;99.90;;;;;;5115913;28;20135;-53
2022/05/24 03:34:48;;;;;;;14.38;12.07;;;13.50;99.90;;;;;;5115680;28;20039;-53
2022/05/24 03:37:13;;;;;;;14.88;12.75;;;13.50;99.90;;;;;;5115543;28;20032;-53
2022/05/24 03:39:39;;;;;;;14.63;11.60;;;13.50;99.90;;;;;;5115565;28;20102;-53
2022/05/24 03:42:05;;;;;;;17.13;13.73;;;13.60;99.90;;;;;;5097281;28;20043;-53
2022/05/24 03:44:31;;;;;;;17.17;13.73;;;13.60;99.90;;;;;;5115648;28;20047;-54
2022/05/24 03:46:58;;;;;;;18.70;14.70;;;13.50;99.90;;;;;;5114949;28;20542;-51
2022/05/24 03:49:24;;;;;;;21.30;15.68;;;13.60;99.90;;;;;;5115085;28;20378;-53
2022/05/24 03:51:50;;;;;;;23.70;16.77;;;13.70;99.90;;;;;;5115091;28;20097;-53
2022/05/24 03:54:16;;;;;;;24.98;17.00;;;13.70;99.90;;;;;;5115133;28;20079;-53
2022/05/24 03:59:27;;;;;;;28.13;18.33;;;13.70;99.90;;;;;;5115286;28;20122;-54
2022/05/24 04:01:53;;;;;;;23.73;18.20;;;13.70;99.90;;;;;;5096908;28;20071;-53
2022/05/24 04:04:18;;;;;;;23.80;17.58;;;13.70;99.90;;;;;;5114494;28;20082;-53
2022/05/24 04:06:44;;;;;;;26.35;17.65;;;13.80;99.90;;;;;;5114961;28;20437;-53
2022/05/24 04:09:10;;;;;;;26.40;18.45;;;13.70;99.90;;;;;;5115221;28;20078;-54
2022/05/24 04:11:35;;;;;;;21.80;18.08;;;13.70;99.90;;;;;;5115221;28;20039;-53
2022/05/24 04:14:01;;;;;;;25.05;18.95;;;13.70;99.90;;;;;;5115006;28;20144;-52
2022/05/24 04:16:27;;;;;;;24.75;19.40;;;13.70;99.90;;;;;;5115081;28;20040;-51
2022/05/24 04:18:52;;;;;;;24.25;19.85;;;13.80;99.90;;;;;;5114549;28;20081;-53
2022/05/24 04:21:18;;;;;;;27.10;20.55;;;13.80;99.90;;;;;;5114932;28;20088;-53
2022/05/24 04:23:43;;;;;;;22.38;19.42;;;13.90;99.90;;;;;;5114682;28;20036;-53
2022/05/24 04:26:09;;;;;;;30.52;19.77;;;13.80;99.90;;;;;;5114773;28;20035;-53
2022/05/24 04:28:35;;;;;;;26.15;18.00;;;13.80;99.90;;;;;;5114538;28;20048;-53
2022/05/24 04:31:01;;;;;;;26.58;18.08;;;13.90;99.90;;;;;;5114695;28;20038;-51
2022/05/24 04:33:26;;;;;;;25.02;19.05;;;13.90;99.90;;;;;;5113518;28;20058;-54
2022/05/24 04:35:52;;;;;;;22.98;17.52;;;13.90;99.90;;;;;;5114295;28;20110;-54
2022/05/24 04:38:18;;;;;;;22.73;18.23;;;13.90;99.90;;;;;;5114031;28;20036;-53
2022/05/24 04:43:28;;;;;;;21.95;17.80;;;14.00;99.90;;;;;;5112251;28;20039;-53
2022/05/24 04:45:55;;;;;;;20.80;16.25;;;13.90;99.90;;;;;;5113625;28;20044;-53
2022/05/24 04:48:21;;;;;;;24.90;16.48;;;14.00;99.90;;;;;;5114290;28;20795;-53
2022/05/24 04:50:52;;;;;;;21.38;16.65;;;14.00;99.90;;;;;;5114094;28;20789;-53
2022/05/24 04:53:17;;;;;;;21.48;16.45;;;14.00;99.90;;;;;;5114173;28;20080;-53
2022/05/24 04:55:43;;;;;;;21.77;15.55;;;14.10;99.90;;;;;;5114453;28;20031;-53
2022/05/24 04:58:11;;;;;;;19.80;13.93;;;14.00;99.90;;;;;;5114099;28;20107;-53
2022/05/24 05:00:37;;;;;;;16.33;14.15;;;14.10;99.90;;;;;;5095993;28;20043;-53
2022/05/24 05:03:14;;;;;;;18.02;13.93;;;14.10;99.90;;;;;;5114107;28;20050;-52
2022/05/24 05:05:40;;;;;;;18.08;13.57;;;14.20;99.90;;;;;;5112862;28;20066;-53
2022/05/24 05:08:07;;;;;;;19.65;13.18;;;14.10;99.90;;;;;;5114123;28;20062;-53
2022/05/24 05:10:36;;;;;;;17.10;12.93;;;14.20;99.90;;;;;;5113787;28;20039;-53
2022/05/24 05:13:03;;;;;;;20.80;12.10;;;14.20;99.90;;;;;;5113879;28;20043;-54
2022/05/24 05:15:29;;;;;;;17.73;11.88;;;14.20;99.90;;;;;;5113879;28;20031;-53
2022/05/24 05:18:03;;;;;;;14.23;11.38;;;14.10;99.90;;;;;;5113390;28;20591;-53
2022/05/24 05:20:28;;;;;;;19.25;12.63;;;14.20;99.90;;;;;;5108746;28;20078;-54
2022/05/24 05:22:54;;;;;;;14.55;11.32;;;14.30;99.90;;;;;;5113421;28;20035;-53
2022/05/24 05:25:20;;;;;;;15.40;11.27;;;14.30;99.90;;;;;;5113449;28;20043;-54
2022/05/24 05:27:45;;;;;;;16.67;12.15;;;14.30;99.90;;;;;;5113356;28;20121;-53
2022/05/24 05:32:56;;;;;;;18.40;12.68;;;14.40;99.90;;;;;;5113476;28;20035;-54
2022/05/24 05:35:21;;;;;;;20.88;12.65;;;14.40;99.90;;;;;;5113140;28;20043;-53
2022/05/24 05:37:47;;;;;;;17.00;12.80;;;14.40;99.90;;;;;;5113544;28;20063;-53
2022/05/24 05:40:14;;;;;;;15.63;12.95;;;14.40;99.90;;;;;;5113441;28;20073;-54
2022/05/24 05:42:39;;;;;;;15.40;11.68;;;14.40;99.90;;;;;;5113295;28;20051;-53
2022/05/24 05:45:06;;;;;;;17.73;13.23;;;14.50;99.90;;;;;;5113356;28;20044;-54
2022/05/24 05:47:32;;;;;;;17.33;13.35;;;14.40;99.90;;;;;;5113247;28;20035;-53
2022/05/24 05:49:58;;;;;;;18.67;12.43;;;14.40;99.90;;;;;;5112981;28;20043;-54
2022/05/24 05:52:23;;;;;;;16.63;12.73;;;14.30;99.90;;;;;;5113256;28;20048;-53
2022/05/24 05:54:49;;;;;;;16.48;12.23;;;14.30;99.90;;;;;;5094659;28;20047;-53
2022/05/24 05:57:15;;;;;;;16.38;12.27;;;14.30;99.90;;;;;;5113130;28;20036;-54
2022/05/24 05:59:40;;;;;;;17.88;12.90;;;14.30;99.90;;;;;;5100692;28;20075;-54
2022/05/24 06:02:07;;;;;;;19.08;13.55;;;14.30;99.90;;;;;;5074018;28;20044;-54
2022/05/24 06:04:33;;;;;;;21.50;14.70;;;14.30;99.90;;;;;;5092337;28;20055;-54
2022/05/24 06:06:59;;;;;;;23.80;14.25;;;14.40;99.90;;;;;;5092332;28;20115;-53
2022/05/24 06:09:25;;;;;;;21.58;15.43;;;14.20;99.90;;;;;;5092109;28;20048;-54
2022/05/24 06:11:50;;;;;;;19.65;13.95;;;14.20;99.90;;;;;;5091908;28;20159;-54
2022/05/24 06:14:16;;;;;;;16.17;11.80;;;14.10;99.90;;;;;;5092012;28;20028;-53
2022/05/24 06:16:42;;;;;;;18.52;12.95;;;14.10;99.90;;;;;;5092340;28;20085;-53
2022/05/24 06:19:07;;;;;;;19.77;13.10;;;14.00;99.90;;;;;;5092114;28;20059;-53
2022/05/24 06:21:33;;;;;;;19.90;11.60;;;14.10;99.90;;;;;;5091740;28;20046;-53
2022/05/24 06:24:02;;;;;;;16.25;12.05;;;14.00;99.90;;;;;;5091899;28;20038;-54
2022/05/24 06:26:29;;;;;;;16.90;11.73;;;13.90;99.90;;;;;;5091916;28;20089;-53
2022/05/24 06:28:56;;;;;;;15.38;12.45;;;14.00;99.90;;;;;;5094150;28;20043;-53
2022/05/24 06:31:21;;;;;;;20.38;12.35;;;13.90;99.90;;;;;;5092270;28;20515;-53
2022/05/24 06:33:48;;;;;;;18.42;11.23;;;13.90;99.90;;;;;;5091589;28;20135;-53
2022/05/24 06:36:13;;;;;;;19.30;12.23;;;13.80;99.90;;;;;;5091929;28;20044;-54
2022/05/24 06:38:39;;;;;;;17.83;12.77;;;13.90;99.90;;;;;;5096877;28;20426;-53
2022/05/24 06:41:05;;;;;;;19.00;14.02;;;13.80;99.90;;;;;;5111742;28;20057;-53
2022/05/24 06:43:31;;;;;;;21.50;15.02;;;13.90;99.90;;;;;;5112137;28;20035;-54
2022/05/24 06:45:57;;;;;;;19.65;14.07;;;13.90;99.90;;;;;;5112296;28;20082;-52
2022/05/24 06:48:23;;;;;;;16.38;12.23;;;14.00;99.90;;;;;;5111049;28;20047;-53
2022/05/24 06:50:48;;;;;;;16.13;10.82;;;14.00;99.90;;;;;;5111264;28;20054;-53
2022/05/24 06:53:14;;;;;;;14.77;11.95;;;13.90;99.90;;;;;;5111805;28;20040;-53
2022/05/24 06:55:39;;;;;;;19.25;13.30;;;13.80;99.90;;;;;;5112063;28;20035;-53
2022/05/24 06:58:05;;;;;;;18.40;13.98;;;13.90;99.90;;;;;;5111408;28;20032;-52
2022/05/24 07:03:16;;;;;;;19.65;14.82;;;14.10;99.90;;;;;;5109481;28;20098;-53
2022/05/24 07:05:44;;;;;;;21.10;14.27;;;14.00;99.90;;;;;;5089379;28;20359;-53
2022/05/24 07:08:10;;;;;;;26.48;16.23;;;14.10;99.90;;;;;;5092666;28;20032;-53
2022/05/24 07:10:37;;;;;;;29.45;16.30;;;14.20;99.90;;;;;;5093940;28;20470;-52
2022/05/24 07:13:09;;;;;;;21.65;16.60;;;14.30;99.90;;;;;;5081959;28;20032;-53
2022/05/24 07:15:36;;;;;;;18.50;14.63;;;14.40;99.90;;;;;;5112425;28;20118;-53
2022/05/24 07:18:02;;;;;;;20.10;13.70;;;14.50;99.90;;;;;;5112160;28;20036;-54
2022/05/24 07:20:29;;;;;;;21.67;12.93;;;14.60;99.90;;;;;;5111994;28;20047;-54
2022/05/24 07:23:04;;;;;;;21.20;10.65;;;14.70;99.90;;;;;;5112325;28;20047;-53
2022/05/24 07:25:30;;;;;;;18.92;9.13;;;14.70;99.90;;;;;;5094095;28;20104;-52
2022/05/24 07:27:55;;;;;;;16.90;10.18;;;14.80;99.90;;;;;;5112307;28;20043;-53
2022/05/24 07:30:21;;;;;;;13.70;8.70;;;14.80;99.90;;;;;;5112276;28;20420;-53
2022/05/24 07:32:47;;;;;;;15.80;7.85;;;14.80;99.90;;;;;;5112225;28;20073;-53
2022/05/24 07:35:13;;;;;;;12.27;8.43;;;14.90;99.90;;;;;;5105888;28;20043;-53
2022/05/24 07:37:39;;;;;;;10.75;6.65;;;14.80;99.90;;;;;;5112100;28;20075;-53
2022/05/24 07:45:48;;;;;;;8.52;4.75;;;14.60;99.90;;;;;;5105669;28;20039;-52
2022/05/24 07:48:14;;;;;;;7.90;4.60;;;14.50;99.90;;;;;;5109758;28;20047;-53
2022/05/24 07:50:41;;;;;;;9.90;4.90;;;14.40;99.90;;;;;;5101242;28;20141;-52
2022/05/24 07:53:08;;;;;;;12.55;5.20;;;14.40;99.90;;;;;;5108334;28;20035;-53
2022/05/24 07:55:34;;;;;;;9.65;5.65;;;14.30;99.90;;;;;;5100234;28;20065;-52
2022/05/24 07:57:59;;;;;;;10.30;4.65;;;14.30;99.90;;;;;;5111859;28;20039;-53
2022/05/24 08:00:25;;;;;;;7.85;5.38;;;14.30;99.90;;;;;;5111151;28;20038;-53
2022/05/24 08:02:52;;;;;;;14.07;6.15;;;14.20;99.90;;;;;;5111992;28;20135;-53
2022/05/24 08:05:19;;;;;;;13.43;6.30;;;14.20;99.90;;;;;;5097552;28;20169;-50
2022/05/24 08:07:49;;;;;;;17.90;8.13;;;14.10;99.90;;;;;;5091240;28;20035;-53
2022/05/24 08:10:16;;;;;;;14.70;6.00;;;14.00;99.90;;;;;;5097272;28;20050;-53
2022/05/24 08:12:42;;;;;;;12.25;6.10;;;14.00;99.90;;;;;;5095113;28;20062;-53
2022/05/24 08:15:08;;;;;;;14.30;6.75;;;13.90;99.90;;;;;;5096727;28;20492;-51
2022/05/24 08:17:34;;;;;;;12.30;6.13;;;13.90;99.90;;;;;;5076860;28;20072;-53
2022/05/24 08:20:00;;;;;;;12.80;6.75;;;13.90;99.90;;;;;;5059147;28;20076;-53
2022/05/24 08:22:26;;;;;;;10.15;6.68;;;13.90;99.90;;;;;;5108110;28;20118;-53
2022/05/24 08:24:52;;;;;;;11.93;6.70;;;13.90;99.90;;;;;;5114960;28;20472;-53
2022/05/24 08:27:17;;;;;;;13.73;6.95;;;13.80;99.90;;;;;;5115001;28;20123;-53
2022/05/24 08:29:46;;;;;;;10.43;5.95;;;13.80;99.90;;;;;;5115032;28;20130;-53
2022/05/24 08:32:12;;;;;;;;;;;13.80;99.90;;;;;;5096154;28;20051;-52
2022/05/24 08:34:38;;;;;;;11.95;6.40;;;13.70;99.90;;;;;;5114454;28;19920;-52
2022/05/24 08:37:05;;;;;;;18.98;7.15;;;13.70;99.90;;;;;;5115000;28;20039;-53
2022/05/24 08:39:31;;;;;;;15.98;7.40;;;13.80;99.90;;;;;;5114883;28;20044;-53
2022/05/24 08:42:14;;;;;;;11.50;6.13;;;13.70;99.90;;;;;;5114076;28;20035;-53
2022/05/24 08:50:42;;;;;;;14.07;9.27;;;13.80;99.90;;;;;;5094513;28;20075;-53
2022/05/24 08:53:12;;;;;;;11.85;8.15;;;13.90;99.90;;;;;;5094452;28;20119;-52
2022/05/24 08:55:40;;;;;;;17.85;10.25;;;13.90;99.90;;;;;;5094352;28;20078;-53
2022/05/24 08:58:17;;;;;;;16.97;10.23;;;14.00;99.90;;;;;;5094464;28;20119;-52
2022/05/24 09:00:43;;;;;;;15.80;9.07;;;14.20;99.90;;;;;;5094173;28;20032;-54
2022/05/24 09:03:10;;;;;;;12.88;9.15;;;14.30;99.90;;;;;;5094552;28;20146;-53
2022/05/24 09:05:49;;;;;;;11.35;8.07;;;14.40;99.90;;;;;;5094316;28;20060;-53
2022/05/24 09:08:37;;;;;;;10.38;8.80;;;14.40;99.90;;;;;;5094271;28;20040;-53
2022/05/24 09:11:17;;;;;;;11.50;7.75;;;14.30;99.90;;;;;;5093893;28;20036;-53
2022/05/24 09:14:11;;;;;;;13.80;9.45;;;14.30;99.90;;;;;;5094054;28;20044;-53
2022/05/24 09:16:56;;;;;;;18.50;11.73;;;14.40;99.90;;;;;;5075965;28;20048;-53
2022/05/24 09:19:25;;;;;;;19.48;11.38;;;14.60;99.90;;;;;;5093301;28;20135;-53
2022/05/24 09:21:54;;;;;;;17.45;10.27;;;14.40;99.90;;;;;;5094082;28;20444;-53
2022/05/24 09:24:24;;;;;;;12.00;10.00;;;14.50;99.90;;;;;;5093982;28;20052;-53
2022/05/24 09:27:18;;;;;;;6.45;4.47;;;14.40;99.90;;;;;;5093778;28;20047;-52
2022/05/24 09:29:58;;;;;;;2.05;1.85;;;14.10;99.90;;;;;;5075714;28;20101;-53
2022/05/24 09:32:38;;;;;;;3.13;1.98;;;13.80;99.90;;;;;;5093753;28;20090;-52
2022/05/24 09:35:15;;;;;;;4.45;2.40;;;13.60;99.90;;;;;;5093545;28;20051;-53
2022/05/24 09:37:42;;;;;;;5.10;2.25;;;13.60;99.90;;;;;;5075547;28;20420;-52
2022/05/24 09:40:21;;;;;;;5.65;2.83;;;13.70;99.90;;;;;;5093327;28;20040;-53
2022/05/24 09:42:48;;;;;;;3.65;2.63;;;13.70;99.90;;;;;;5093741;28;20032;-52
2022/05/24 09:45:15;;;;;;;5.32;2.90;;;13.70;99.90;;;;;;5093482;28;20101;-53
2022/05/24 09:47:43;;;;;;;4.07;3.03;;;13.80;99.90;;;;;;5093625;28;20056;-53
2022/05/24 09:50:16;;;;;;;10.43;3.92;;;13.90;99.90;;;;;;5093475;28;20036;-53
2022/05/24 09:52:46;;;;;;;3.25;2.33;;;13.90;99.90;;;;;;5093137;28;20056;-53
2022/05/24 09:55:22;;;;;;;4.15;2.33;;;14.00;99.90;;;;;;5093399;28;20097;-53
2022/05/24 09:57:48;;;;;;;5.60;2.65;;;14.00;99.90;;;;;;5093337;28;20097;-53
2022/05/24 10:00:23;;;;;;;6.25;2.28;;;14.10;99.90;;;;;;5093001;28;20039;-53
2022/05/24 10:03:02;;;;;;;7.45;2.40;;;14.10;99.90;;;;;;5093114;28;20044;-53
2022/05/24 10:05:28;;;;;;;5.65;2.30;;;14.10;99.90;;;;;;5074513;28;20050;-53
2022/05/24 10:08:02;;;;;;;3.65;2.50;;;14.20;99.90;;;;;;5093168;28;20044;-53
2022/05/24 10:10:39;;;;;;;3.72;2.30;;;14.40;99.90;;;;;;5092976;28;20039;-53
2022/05/24 10:13:21;;;;;;;4.72;2.08;;;14.50;99.90;;;;;;5094796;28;20044;-53
2022/05/24 10:16:08;;;;;;;5.40;2.80;;;14.70;99.90;;;;;;5109205;28;20500;-53
2022/05/24 10:18:57;;;;;;;4.50;2.50;;;14.80;99.90;;;;;;5110230;28;20028;-53
2022/05/24 10:21:33;;;;;;;4.55;2.17;;;14.80;99.90;;;;;;5111051;28;20038;-53
2022/05/24 10:24:21;;;;;;;4.80;2.30;;;14.80;99.90;;;;;;5112938;28;20039;-53
2022/05/24 10:27:33;;;;;;;3.30;2.10;;;14.80;99.90;;;;;;5112332;28;20162;-53
2022/05/24 10:30:13;;;;;;;4.15;3.05;;;14.80;99.90;;;;;;5029914;28;20049;-53
2022/05/24 10:39:15;;;;;;;6.60;2.50;;;15.00;99.90;;;;;;5029999;28;20099;-53
2022/05/24 10:42:23;;;;;;;6.18;3.03;;;14.70;99.90;;;;;;5029909;28;20559;-53
2022/05/24 10:45:22;;;;;;;6.00;2.88;;;14.70;99.90;;;;;;5029155;28;20131;-53
2022/05/24 10:47:58;;;;;;;3.90;2.75;;;14.50;99.90;;;;;;4971298;28;20131;-51
2022/05/24 10:50:44;;;;;;;5.00;2.83;;;14.50;99.90;;;;;;4970867;28;20050;-53
2022/05/24 10:53:17;;;;;;;3.78;2.22;;;14.50;99.90;;;;;;4970973;28;20520;-51
2022/05/24 10:56:06;;;;;;;3.92;2.42;;;14.80;99.90;;;;;;4970928;28;20042;-53
2022/05/24 10:58:35;;;;;;;3.60;2.25;;;15.20;99.90;;;;;;4932204;29;20532;-53
2022/05/24 11:01:08;;;;;;;4.35;2.20;;;15.60;99.90;;;;;;4932495;29;20098;-54
2022/05/24 11:03:44;;;;;;;2.90;2.15;;;16.00;99.90;;;;;;4945223;28;20054;-52
2022/05/24 11:06:27;;;;;;;6.13;2.38;;;16.20;99.90;;;;;;4970792;28;20502;-53
2022/05/24 11:09:04;;;;;;;5.45;2.45;;;16.20;99.90;;;;;;4970579;28;20035;-53
2022/05/24 11:12:05;;;;;;;8.65;3.10;;;15.90;99.90;;;;;;4970686;28;20621;-53
2022/05/24 11:14:41;;;;;;;2.75;2.50;;;16.00;99.90;;;;;;4954774;28;20101;-53
2022/05/24 11:17:10;;;;;;;4.07;2.28;;;15.70;99.90;;;;;;4970641;28;20086;-53
2022/05/24 11:19:39;;;;;;;4.07;2.20;;;15.40;99.90;;;;;;4970639;28;20093;-53
2022/05/24 11:22:23;;;;;;;2.42;1.70;;;15.30;99.90;;;;;;4971084;28;20896;-53
2022/05/24 11:25:25;;;;;;;6.05;1.80;;;15.30;99.90;;;;;;5014442;28;20060;-53
2022/05/24 11:28:13;;;;;;;3.90;1.73;;;15.40;99.90;;;;;;4989996;28;20062;-53
2022/05/24 11:30:41;;;;;;;3.97;1.83;;;15.40;99.90;;;;;;4989795;28;20085;-53
2022/05/24 11:33:13;;;;;;;1.80;1.30;;;15.10;99.90;;;;;;4990119;28;20046;-53
2022/05/24 11:35:50;;;;;;;4.70;1.40;;;14.80;99.90;;;;;;4999928;28;20061;-53
2022/05/24 11:38:38;;;;;;;3.72;1.27;;;14.60;99.90;;;;;;5009625;28;20057;-54
2022/05/24 11:41:12;;;;;;;3.17;1.40;;;14.60;99.90;;;;;;5009624;28;20076;-53
2022/05/24 11:43:46;;;;;;;3.00;1.38;;;15.20;99.90;;;;;;5011429;28;20042;-53
2022/05/24 11:46:33;;;;;;;5.68;1.35;;;15.50;99.90;;;;;;5013283;28;20038;-53
2022/05/24 11:49:23;;;;;;;2.22;1.30;;;15.80;99.90;;;;;;5012424;28;20568;-52
2022/05/24 11:51:51;;;;;;;2.72;1.45;;;16.30;99.90;;;;;;4980921;28;20087;-54
2022/05/24 11:54:21;;;;;;;4.15;2.70;;;16.40;99.90;;;;;;4973300;28;20051;-54
2022/05/24 11:57:01;;;;;;;4.15;1.88;;;16.50;99.90;;;;;;4973736;28;20072;-54
2022/05/24 11:59:48;;;;;;;2.97;1.45;;;16.30;99.90;;;;;;4971483;28;20115;-53
2022/05/24 12:02:20;;;;;;;2.95;1.55;;;16.10;99.90;;;;;;4974040;28;20175;-53
2022/05/24 12:08:06;;;;;;;5.45;1.63;;;16.00;99.90;;;;;;5013075;28;20046;-53
2022/05/24 12:10:37;;;;;;;4.60;1.60;;;16.20;99.90;;;;;;5013083;28;20046;-53
2022/05/24 12:13:03;;;;;;;1.98;1.00;;;16.10;99.90;;;;;;5013026;28;20050;-53
2022/05/24 12:15:34;;;;;;;1.33;0.75;;;15.90;99.90;;;;;;5013498;28;20080;-53
2022/05/24 12:18:00;;;;;;;3.05;0.90;;;15.70;99.90;;;;;;5012906;28;20154;-54
2022/05/24 12:20:46;;;;;;;4.05;1.00;;;15.60;99.90;;;;;;5012732;28;20132;-53
2022/05/24 12:23:29;;;;;;;3.60;1.13;;;15.40;99.90;;;;;;5012736;28;20050;-53
2022/05/24 12:26:06;;;;;;;5.47;1.10;;;15.60;99.90;;;;;;5012613;28;20045;-53
2022/05/24 12:28:37;;;;;;;3.28;0.82;;;16.20;99.90;;;;;;5020957;28;20045;-54
2022/05/24 12:31:23;;;;;;;2.60;1.00;;;16.60;99.90;;;;;;5036058;28;20078;-53
2022/05/24 12:34:09;;;;;;;3.97;1.30;;;16.80;99.90;;;;;;5042407;28;20407;-53
2022/05/24 12:36:40;;;;;;;2.80;1.10;;;16.50;99.90;;;;;;5046531;28;20117;-52
2022/05/24 12:39:12;;;;;;;3.70;1.08;;;16.20;99.90;;;;;;5038700;28;20049;-53
2022/05/24 12:41:59;;;;;;;3.42;0.95;;;16.00;99.90;;;;;;5052097;28;20053;-54
2022/05/24 12:44:32;;;;;;;2.42;0.90;;;15.90;99.90;;;;;;5052079;28;20048;-54
2022/05/24 12:47:13;;;;;;;6.53;1.15;;;16.00;99.90;;;;;;5052115;28;20131;-53
2022/05/24 12:49:47;;;;;;;5.22;1.13;;;16.20;99.90;;;;;;5052077;28;20041;-54
2022/05/24 12:52:28;;;;;;;3.17;0.75;;;16.40;99.90;;;;;;5052022;28;20052;-54
2022/05/24 12:54:57;;;;;;;4.88;1.02;;;16.40;99.90;;;;;;5051029;28;20063;-53
2022/05/24 12:57:35;;;;;;;4.63;1.17;;;16.80;99.90;;;;;;5046393;28;20038;-54
2022/05/24 13:00:08;;;;;;;4.60;1.02;;;17.10;99.90;;;;;;5063272;28;20040;-54
2022/05/24 13:02:46;;;;;;;3.47;1.25;;;17.40;99.90;;;;;;5103665;28;20036;-54
2022/05/24 13:05:22;;;;;;;2.50;1.10;;;17.30;99.90;;;;;;5096006;28;20039;-53
2022/05/24 13:07:50;;;;;;;4.57;0.85;;;17.30;99.90;;;;;;5096859;28;20483;-54
2022/05/24 13:10:19;;;;;;;3.78;0.90;;;17.80;99.90;;;;;;5103134;28;20112;-55
2022/05/24 13:13:02;;;;;;;2.10;1.13;;;17.60;99.90;;;;;;5100336;28;20052;-55
2022/05/24 13:15:30;;;;;;;6.53;1.08;;;17.60;99.90;;;;;;5093729;28;20532;-55
2022/05/24 13:18:06;;;;;;;3.67;0.98;;;17.40;99.90;;;;;;5094175;28;20142;-55
2022/05/24 13:20:40;;;;;;;2.55;0.93;;;17.10;99.90;;;;;;5098518;28;20059;-55
2022/05/24 13:23:19;;;;;;;4.20;0.95;;;17.30;99.90;;;;;;5113582;28;20036;-55
2022/05/24 13:26:13;;;;;;;3.95;0.80;;;17.80;99.90;;;;;;5114415;28;20039;-55
2022/05/24 13:28:45;;;;;;;2.83;1.00;;;18.10;99.90;;;;;;5113855;28;20039;-55
2022/05/24 13:34:24;;;;;;;4.22;0.98;;;18.00;99.90;;;;;;5114329;28;20150;-55
2022/05/24 13:36:59;;;;;;;3.60;1.08;;;17.60;99.90;;;;;;5114012;28;20818;-55
2022/05/24 13:39:28;;;;;;;2.08;0.82;;;17.20;99.90;;;;;;5099149;28;20470;-55
2022/05/24 13:42:00;;;;;;;5.78;1.10;;;17.00;99.90;;;;;;5093682;28;20413;-55
2022/05/24 13:44:28;;;;;;;5.07;0.93;;;16.70;99.90;;;;;;5093690;28;20407;-55
2022/05/24 13:46:58;;;;;;;6.35;1.20;;;16.70;99.90;;;;;;5103261;28;20036;-55
2022/05/24 13:49:43;;;;;;;2.35;1.00;;;16.50;99.90;;;;;;5113590;28;20111;-55